Terminal Aerodrome Forecast
Issued by NWS Jackson, KY

Home | Current Version | Previous Version | Text Only | Print | Product List | Glossary On
Versions: 1 2 3 4 5 6 7 8 9 10 11 12 13 14 15 16 17 18 19 20
000
FTUS43 KJKL 250531
TAFJKL
TAF
KJKL 250531Z 2506/2606 19004KT P6SM SCT250
     FM250800 18004KT P6SM BKN070
     FM251500 18006G15KT P6SM SCT070 BKN200
     FM252300 17004KT P6SM SCT200=

USA.gov is the U.S. government's official web portal to all federal, state and local government web resources and services.